Time;durP1;ratioP1;P1;durP2;ratioP2;P2;SDS_P1;SDS_P2;PMS_P1;PMS_P2;Temp;Humidity;BMP_temperature;BMP_pressure;BME280_temperature;BME280_humidity;BME280_pressure;Samples;Min_cycle;Max_cycle;Signal;HPM_P1;HPM_P2
2021/08/29 00:00:23;;;;;;;15.00;4.90;;;15.80;95.10;;;;;;5049780;28;20437;-51
2021/08/29 00:02:48;;;;;;;12.98;4.57;;;15.80;95.00;;;;;;5050245;28;20120;-51
2021/08/29 00:05:14;;;;;;;13.52;4.78;;;15.80;95.00;;;;;;5049669;28;20033;-51
2021/08/29 00:07:39;;;;;;;14.35;4.85;;;15.80;94.90;;;;;;5049989;28;20045;-53
2021/08/29 00:10:06;;;;;;;16.65;4.80;;;15.90;94.80;;;;;;5052871;28;20040;-52
2021/08/29 00:12:31;;;;;;;12.93;5.00;;;15.90;94.60;;;;;;5053463;28;20048;-55
2021/08/29 00:14:58;;;;;;;12.23;4.35;;;15.90;94.50;;;;;;5035583;28;20048;-54
2021/08/29 00:17:24;;;;;;;14.25;4.68;;;15.90;94.60;;;;;;5052314;28;20420;-50
2021/08/29 00:19:49;;;;;;;14.88;4.80;;;15.90;94.50;;;;;;5053654;28;20047;-53
2021/08/29 00:22:15;;;;;;;12.77;5.13;;;15.90;94.50;;;;;;5053222;28;20124;-50
2021/08/29 00:24:41;;;;;;;11.15;4.85;;;15.90;94.50;;;;;;5053023;28;20520;-53
2021/08/29 00:27:06;;;;;;;26.73;5.20;;;15.90;94.40;;;;;;5052588;28;20094;-54
2021/08/29 00:29:32;;;;;;;13.13;4.40;;;15.90;94.40;;;;;;5047596;28;20025;-53
2021/08/29 00:31:58;;;;;;;9.48;4.15;;;15.90;94.50;;;;;;5043795;28;20041;-54
2021/08/29 00:34:23;;;;;;;15.90;4.70;;;15.90;94.40;;;;;;5045527;28;20035;-50
2021/08/29 00:36:49;;;;;;;14.85;4.28;;;15.90;94.30;;;;;;5052360;28;20041;-51
2021/08/29 00:39:14;;;;;;;13.20;4.60;;;15.90;94.40;;;;;;5052946;28;20041;-54
2021/08/29 00:41:44;;;;;;;13.13;5.05;;;15.90;94.30;;;;;;5045130;28;20041;-58
2021/08/29 00:44:13;;;;;;;13.10;4.45;;;15.90;94.40;;;;;;5052914;28;20063;-51
2021/08/29 00:46:39;;;;;;;11.25;4.30;;;15.90;94.40;;;;;;5045398;28;20408;-54
2021/08/29 00:49:04;;;;;;;11.45;5.10;;;15.90;94.30;;;;;;5045358;28;20052;-55
2021/08/29 00:51:35;;;;;;;13.68;4.65;;;15.90;94.30;;;;;;5052802;28;20040;-54
2021/08/29 00:54:01;;;;;;;13.35;4.55;;;15.90;94.30;;;;;;5040145;28;20122;-52
2021/08/29 00:56:27;;;;;;;13.15;5.18;;;15.90;94.20;;;;;;5052068;28;20474;-54
2021/08/29 00:58:55;;;;;;;14.07;4.90;;;15.90;94.20;;;;;;5051838;28;20033;-54
2021/08/29 01:01:28;;;;;;;10.18;4.50;;;15.80;94.20;;;;;;5040827;28;20045;-53
2021/08/29 01:04:00;;;;;;;13.07;4.93;;;15.90;94.10;;;;;;5051866;28;20090;-54
2021/08/29 01:06:29;;;;;;;;;;;15.90;94.20;;;;;;5052506;28;20079;-53
2021/08/29 01:09:02;;;;;;;11.88;4.63;;;15.90;94.10;;;;;;5034506;28;19927;-57
2021/08/29 01:11:29;;;;;;;9.40;4.25;;;15.90;94.00;;;;;;5039957;28;20041;-54
2021/08/29 01:14:03;;;;;;;11.38;4.47;;;15.90;94.10;;;;;;5047195;28;20037;-58
2021/08/29 01:16:32;;;;;;;13.98;4.97;;;15.90;94.10;;;;;;5046016;28;20386;-52
2021/08/29 01:19:00;;;;;;;13.88;5.00;;;15.80;94.10;;;;;;5048651;28;20045;-54
2021/08/29 01:21:28;;;;;;;12.38;4.10;;;15.80;94.20;;;;;;5051038;28;20040;-53
2021/08/29 01:23:58;;;;;;;10.40;4.38;;;15.80;94.20;;;;;;5052199;28;20116;-51
2021/08/29 01:26:40;;;;;;;13.88;4.50;;;15.80;94.30;;;;;;5051463;28;20044;-55
2021/08/29 01:29:08;;;;;;;8.38;4.50;;;15.80;94.30;;;;;;5003938;28;20045;-54
2021/08/29 01:31:36;;;;;;;13.50;4.75;;;15.80;94.30;;;;;;5044078;28;20124;-55
2021/08/29 01:34:07;;;;;;;13.73;4.90;;;15.80;94.60;;;;;;5033452;28;20039;-54
2021/08/29 01:36:34;;;;;;;13.45;4.30;;;15.80;94.40;;;;;;5045288;28;20178;-51
2021/08/29 01:39:02;;;;;;;12.80;4.57;;;15.80;94.40;;;;;;5045380;28;20039;-56
2021/08/29 01:41:28;;;;;;;12.23;5.15;;;15.80;94.50;;;;;;5045896;28;20060;-55
2021/08/29 01:43:55;;;;;;;12.98;4.65;;;15.80;94.50;;;;;;5042664;28;20037;-56
2021/08/29 01:46:22;;;;;;;11.88;4.45;;;15.80;94.60;;;;;;5036910;28;20041;-53
2021/08/29 01:48:48;;;;;;;12.10;4.70;;;15.80;94.60;;;;;;5051061;28;20040;-53
2021/08/29 01:51:14;;;;;;;12.60;4.68;;;15.80;94.70;;;;;;5049382;28;20382;-53
2021/08/29 01:53:40;;;;;;;13.75;5.30;;;15.80;94.70;;;;;;5032155;28;20120;-51
2021/08/29 01:56:07;;;;;;;10.80;4.47;;;15.80;94.80;;;;;;5044743;28;20030;-56
2021/08/29 01:58:33;;;;;;;12.52;4.65;;;15.80;94.80;;;;;;5043717;28;20045;-53
2021/08/29 02:01:02;;;;;;;11.60;4.85;;;15.70;94.80;;;;;;5050005;28;20037;-53
2021/08/29 02:03:29;;;;;;;11.70;4.82;;;15.70;94.90;;;;;;5051219;28;20404;-51
2021/08/29 02:06:06;;;;;;;16.00;5.22;;;15.70;94.90;;;;;;5049716;28;20049;-52
2021/08/29 02:08:35;;;;;;;11.40;4.45;;;15.70;95.00;;;;;;5020782;28;20042;-55
2021/08/29 02:11:01;;;;;;;14.98;4.47;;;15.70;95.00;;;;;;5047735;28;20144;-51
2021/08/29 02:13:30;;;;;;;12.35;4.43;;;15.70;95.00;;;;;;5042996;28;20052;-54
2021/08/29 02:16:05;;;;;;;11.98;4.88;;;15.70;95.00;;;;;;5033331;28;20048;-51
2021/08/29 02:18:34;;;;;;;10.55;4.70;;;15.70;95.10;;;;;;5050844;28;20082;-54
2021/08/29 02:21:00;;;;;;;12.18;4.85;;;15.70;95.20;;;;;;5050851;28;20098;-51
2021/08/29 02:23:29;;;;;;;13.48;4.55;;;15.70;95.10;;;;;;5050924;28;20045;-51
2021/08/29 02:25:55;;;;;;;9.70;5.22;;;15.70;95.20;;;;;;5050284;28;20040;-54
2021/08/29 02:28:21;;;;;;;14.45;5.10;;;15.70;95.20;;;;;;5039564;28;20091;-53
2021/08/29 02:30:48;;;;;;;15.13;4.93;;;15.70;95.30;;;;;;5044411;28;20073;-51
2021/08/29 02:33:13;;;;;;;12.93;4.47;;;15.70;95.30;;;;;;5038185;28;20531;-57
2021/08/29 02:35:41;;;;;;;13.70;4.72;;;15.70;95.30;;;;;;5043403;28;20038;-54
2021/08/29 02:38:07;;;;;;;11.88;4.82;;;15.70;95.40;;;;;;5045154;28;20397;-54
2021/08/29 02:40:39;;;;;;;15.70;5.03;;;15.70;95.40;;;;;;5050556;28;20049;-55
2021/08/29 02:43:07;;;;;;;17.05;5.10;;;15.70;95.50;;;;;;5040819;28;20041;-51
2021/08/29 02:45:35;;;;;;;12.48;4.38;;;15.70;95.50;;;;;;5050775;28;20049;-51
2021/08/29 02:48:02;;;;;;;12.13;5.07;;;15.70;95.50;;;;;;5040117;28;20038;-51
2021/08/29 02:50:28;;;;;;;13.10;4.65;;;15.70;95.50;;;;;;5049402;28;20451;-52
2021/08/29 02:52:55;;;;;;;13.40;4.85;;;15.70;95.60;;;;;;5040472;28;20576;-51
2021/08/29 02:55:20;;;;;;;13.93;4.90;;;15.70;95.60;;;;;;5044491;28;20052;-51
2021/08/29 02:57:51;;;;;;;11.90;4.72;;;15.70;95.60;;;;;;5050096;28;20116;-51
2021/08/29 03:00:17;;;;;;;12.88;4.70;;;15.70;95.60;;;;;;5049363;28;20485;-51
2021/08/29 03:02:43;;;;;;;12.15;5.20;;;15.70;95.60;;;;;;5047628;28;20120;-53
2021/08/29 03:05:10;;;;;;;15.15;4.85;;;15.70;95.60;;;;;;5047268;28;20112;-51
2021/08/29 03:07:36;;;;;;;16.30;5.13;;;15.70;95.70;;;;;;5028824;28;20091;-53
2021/08/29 03:10:02;;;;;;;15.70;5.65;;;15.70;95.60;;;;;;5040182;28;20041;-54
2021/08/29 03:12:28;;;;;;;10.18;5.05;;;15.70;95.70;;;;;;5046558;28;20497;-51
2021/08/29 03:14:54;;;;;;;15.27;4.75;;;15.70;95.70;;;;;;5050394;28;20082;-51
2021/08/29 03:17:21;;;;;;;10.48;4.35;;;15.70;95.70;;;;;;5049349;28;20037;-51
2021/08/29 03:19:49;;;;;;;13.00;5.32;;;15.70;95.70;;;;;;5050333;28;20037;-51
2021/08/29 03:22:15;;;;;;;10.85;4.20;;;15.70;95.70;;;;;;5050241;28;20143;-51
2021/08/29 03:24:41;;;;;;;9.57;4.60;;;15.70;95.80;;;;;;5050139;28;20075;-52
2021/08/29 03:27:07;;;;;;;10.52;4.13;;;15.70;95.80;;;;;;5049742;28;20041;-51
2021/08/29 03:29:32;;;;;;;16.17;5.15;;;15.70;95.80;;;;;;5050229;28;20115;-51
2021/08/29 03:31:59;;;;;;;12.02;4.30;;;15.60;95.80;;;;;;5050158;28;20092;-52
2021/08/29 03:34:25;;;;;;;17.67;4.80;;;15.60;95.90;;;;;;5049894;28;20032;-51
2021/08/29 03:36:51;;;;;;;18.45;4.93;;;15.60;95.90;;;;;;5049436;28;20558;-51
2021/08/29 03:39:17;;;;;;;17.25;4.57;;;15.60;96.00;;;;;;5050317;28;20037;-54
2021/08/29 03:41:44;;;;;;;10.75;5.15;;;15.60;96.10;;;;;;5049813;28;20045;-57
2021/08/29 03:44:12;;;;;;;12.88;4.22;;;15.60;96.10;;;;;;5052215;28;20500;-52
2021/08/29 03:46:39;;;;;;;12.60;4.60;;;15.60;96.20;;;;;;5053277;28;20033;-51
2021/08/29 03:49:05;;;;;;;12.52;4.50;;;15.60;96.20;;;;;;5053921;28;20385;-56
2021/08/29 03:51:32;;;;;;;12.10;4.03;;;15.50;96.20;;;;;;5053315;28;20052;-56
2021/08/29 03:53:59;;;;;;;12.23;4.85;;;15.50;96.20;;;;;;5052237;28;20116;-51
2021/08/29 03:56:25;;;;;;;11.55;4.47;;;15.60;96.30;;;;;;5040751;28;20045;-51
2021/08/29 03:58:51;;;;;;;15.70;4.47;;;15.60;96.30;;;;;;5047145;28;20060;-51
2021/08/29 04:01:16;;;;;;;11.48;4.20;;;15.50;96.30;;;;;;5016911;28;20432;-51
2021/08/29 04:03:42;;;;;;;14.50;4.43;;;15.50;96.30;;;;;;5029504;28;20514;-51
2021/08/29 04:06:11;;;;;;;12.70;3.97;;;15.50;96.30;;;;;;5043190;28;20045;-53
2021/08/29 04:08:40;;;;;;;11.38;3.95;;;15.50;96.30;;;;;;5039186;28;20041;-58
2021/08/29 04:11:08;;;;;;;13.07;3.95;;;15.60;96.40;;;;;;5053220;28;20558;-52
2021/08/29 04:13:36;;;;;;;11.93;4.05;;;15.60;96.40;;;;;;5046229;28;20037;-51
2021/08/29 04:16:03;;;;;;;12.25;3.83;;;15.60;96.30;;;;;;5044492;28;20061;-51
2021/08/29 04:18:34;;;;;;;11.00;4.40;;;15.60;96.40;;;;;;5048199;28;20056;-51
2021/08/29 04:21:00;;;;;;;14.02;4.13;;;15.60;96.40;;;;;;5052827;28;20037;-52
2021/08/29 04:23:26;;;;;;;15.63;4.88;;;15.60;96.40;;;;;;5053222;28;20378;-51
2021/08/29 04:25:52;;;;;;;11.95;4.50;;;15.60;96.30;;;;;;5053108;28;20033;-54
2021/08/29 04:28:17;;;;;;;13.98;4.38;;;15.60;96.30;;;;;;5032338;28;20051;-53
2021/08/29 04:30:45;;;;;;;15.75;5.20;;;15.60;96.30;;;;;;5045742;28;20045;-56
2021/08/29 04:33:10;;;;;;;15.32;3.80;;;15.60;96.30;;;;;;5045238;28;20045;-51
2021/08/29 04:35:36;;;;;;;10.55;3.90;;;15.60;96.30;;;;;;5034754;28;20048;-51
2021/08/29 04:38:02;;;;;;;15.05;3.85;;;15.60;96.30;;;;;;5052684;28;20123;-55
2021/08/29 04:40:27;;;;;;;11.20;3.95;;;15.60;96.30;;;;;;5052556;28;20110;-55
2021/08/29 04:42:53;;;;;;;19.45;4.60;;;15.50;96.30;;;;;;5053030;28;20069;-51
2021/08/29 04:45:18;;;;;;;12.30;4.05;;;15.60;96.30;;;;;;5052298;28;20037;-51
2021/08/29 04:47:44;;;;;;;11.27;3.83;;;15.60;96.30;;;;;;5045693;28;20041;-52
2021/08/29 04:50:09;;;;;;;14.07;4.38;;;15.60;96.30;;;;;;5046052;28;20064;-51
2021/08/29 04:52:35;;;;;;;9.32;3.60;;;15.60;96.30;;;;;;5051938;28;20520;-52
2021/08/29 04:55:01;;;;;;;12.48;4.20;;;15.60;96.30;;;;;;5024814;28;20367;-51
2021/08/29 04:57:26;;;;;;;16.25;4.13;;;15.60;96.30;;;;;;5032490;28;20103;-51
2021/08/29 04:59:52;;;;;;;14.95;3.78;;;15.60;96.30;;;;;;5036551;28;20440;-54
2021/08/29 05:02:17;;;;;;;10.38;3.60;;;15.60;96.30;;;;;;5052386;28;20080;-51
2021/08/29 05:04:43;;;;;;;11.95;3.75;;;15.60;96.30;;;;;;5048905;28;20080;-53
2021/08/29 05:07:08;;;;;;;13.32;3.90;;;15.60;96.30;;;;;;5050966;28;20232;-51
2021/08/29 05:09:34;;;;;;;12.55;3.90;;;15.60;96.30;;;;;;5046266;28;20413;-51
2021/08/29 05:11:59;;;;;;;9.52;3.83;;;15.60;96.30;;;;;;5043394;28;20033;-51
2021/08/29 05:14:25;;;;;;;15.95;4.68;;;15.60;96.30;;;;;;5051710;28;20037;-51
2021/08/29 05:16:50;;;;;;;12.23;4.90;;;15.60;96.30;;;;;;5049771;28;20516;-55
2021/08/29 05:19:16;;;;;;;11.40;4.05;;;15.60;96.40;;;;;;5052546;28;20037;-57
2021/08/29 05:21:41;;;;;;;13.20;3.88;;;15.60;96.40;;;;;;5052199;28;20033;-57
2021/08/29 05:24:07;;;;;;;14.35;4.18;;;15.60;96.40;;;;;;5052312;28;20045;-57
2021/08/29 05:26:32;;;;;;;13.80;4.10;;;15.60;96.50;;;;;;5051087;28;20045;-59
2021/08/29 05:28:58;;;;;;;12.65;4.38;;;15.60;96.50;;;;;;5052338;28;20052;-56
2021/08/29 05:31:24;;;;;;;12.10;4.18;;;15.60;96.50;;;;;;5051124;28;20040;-57
2021/08/29 05:33:49;;;;;;;11.90;4.07;;;15.60;96.60;;;;;;5046745;28;20032;-57
2021/08/29 05:36:15;;;;;;;13.32;4.43;;;15.60;96.60;;;;;;5050783;28;20044;-56
2021/08/29 05:38:40;;;;;;;13.90;4.38;;;15.60;96.70;;;;;;5051269;28;20029;-53
2021/08/29 05:41:06;;;;;;;17.45;4.72;;;15.60;96.80;;;;;;5052122;28;20064;-54
2021/08/29 05:43:31;;;;;;;18.13;4.22;;;15.70;96.80;;;;;;5051758;28;20132;-54
2021/08/29 05:45:57;;;;;;;15.55;5.30;;;15.60;96.80;;;;;;5051543;28;20048;-56
2021/08/29 05:48:22;;;;;;;18.05;4.75;;;15.60;96.90;;;;;;5051065;28;20040;-52
2021/08/29 05:50:48;;;;;;;16.52;4.55;;;15.60;96.90;;;;;;5051604;28;20067;-54
2021/08/29 05:53:13;;;;;;;18.20;4.60;;;15.70;97.30;;;;;;5051337;28;20592;-54
2021/08/29 05:55:39;;;;;;;15.90;4.72;;;15.70;97.10;;;;;;5051466;28;20037;-57
2021/08/29 05:58:04;;;;;;;12.88;4.45;;;15.70;97.40;;;;;;5049395;28;20033;-53
2021/08/29 06:00:30;;;;;;;15.55;4.00;;;15.70;97.30;;;;;;5050204;28;20072;-54
2021/08/29 06:02:55;;;;;;;12.63;4.32;;;15.90;97.20;;;;;;5050195;28;20119;-55
2021/08/29 06:05:21;;;;;;;15.77;3.92;;;15.90;96.40;;;;;;5051132;28;20029;-54
2021/08/29 06:07:47;;;;;;;14.00;4.60;;;15.80;96.60;;;;;;5049712;28;20033;-56
2021/08/29 06:10:12;;;;;;;13.88;3.67;;;15.70;97.00;;;;;;5050386;28;20505;-56
2021/08/29 06:12:39;;;;;;;17.20;4.80;;;15.70;97.10;;;;;;5051461;28;20044;-57
2021/08/29 06:15:06;;;;;;;14.70;4.35;;;15.60;97.20;;;;;;5050760;28;20067;-55
2021/08/29 06:17:31;;;;;;;18.98;4.93;;;15.60;97.30;;;;;;5050807;28;20028;-56
2021/08/29 06:19:57;;;;;;;16.05;4.10;;;15.60;97.40;;;;;;5051606;28;20052;-56
2021/08/29 06:22:22;;;;;;;12.73;4.10;;;15.60;97.70;;;;;;5047357;28;20066;-57
2021/08/29 06:24:48;;;;;;;11.77;4.47;;;15.60;97.50;;;;;;5042299;28;20041;-57
2021/08/29 06:27:13;;;;;;;10.32;3.97;;;15.60;97.60;;;;;;5050094;28;20421;-56
2021/08/29 06:29:39;;;;;;;14.98;4.95;;;15.50;97.70;;;;;;5064464;22;20410;-54
2021/08/29 06:32:05;;;;;;;14.10;4.57;;;15.50;97.90;;;;;;5051369;28;20505;-54
2021/08/29 06:34:36;;;;;;;12.40;4.35;;;15.50;97.90;;;;;;5022082;28;20032;-54
2021/08/29 06:37:02;;;;;;;13.55;3.78;;;15.50;98.20;;;;;;5042870;28;20033;-57
2021/08/29 06:39:27;;;;;;;12.85;3.83;;;15.50;98.30;;;;;;5052548;28;20037;-53
2021/08/29 06:41:53;;;;;;;13.20;3.90;;;15.40;98.00;;;;;;5049571;28;20063;-58
2021/08/29 06:44:18;;;;;;;13.05;4.20;;;15.40;98.10;;;;;;5046286;28;20041;-55
2021/08/29 06:46:44;;;;;;;12.60;4.28;;;15.30;98.20;;;;;;5051454;28;20051;-54
2021/08/29 06:49:10;;;;;;;13.73;4.07;;;15.40;98.20;;;;;;5044427;28;20047;-53
2021/08/29 06:51:36;;;;;;;9.55;3.67;;;15.30;98.20;;;;;;5049075;28;20143;-53
2021/08/29 06:54:02;;;;;;;13.45;4.20;;;15.30;98.20;;;;;;5047695;28;20468;-54
2021/08/29 06:56:27;;;;;;;12.43;3.70;;;15.30;98.30;;;;;;5021538;28;20408;-55
2021/08/29 06:58:53;;;;;;;15.57;4.30;;;15.30;98.40;;;;;;5044828;28;20041;-54
2021/08/29 07:01:19;;;;;;;15.52;4.18;;;15.30;98.40;;;;;;5033801;28;20045;-55
2021/08/29 07:03:44;;;;;;;12.77;4.00;;;15.30;98.50;;;;;;5033007;28;20044;-54
2021/08/29 07:06:10;;;;;;;8.98;3.55;;;15.30;98.50;;;;;;5046123;28;20041;-54
2021/08/29 07:08:35;;;;;;;12.80;4.05;;;15.30;98.60;;;;;;5050474;28;20041;-55
2021/08/29 07:11:03;;;;;;;12.73;4.03;;;15.30;98.70;;;;;;5055446;28;20037;-57
2021/08/29 07:13:30;;;;;;;13.60;3.75;;;15.30;98.70;;;;;;5054413;28;20787;-57
2021/08/29 07:15:57;;;;;;;18.30;4.07;;;15.30;98.70;;;;;;5048113;28;20033;-57
2021/08/29 07:18:23;;;;;;;16.13;4.00;;;15.30;98.80;;;;;;5055098;28;20186;-52
2021/08/29 07:20:48;;;;;;;10.35;3.70;;;15.30;98.90;;;;;;5072275;28;20044;-54
2021/08/29 07:23:14;;;;;;;13.77;3.78;;;15.30;98.90;;;;;;5049975;28;20064;-55
2021/08/29 07:25:40;;;;;;;16.33;4.22;;;15.30;99.00;;;;;;5029717;28;20041;-51
2021/08/29 07:28:06;;;;;;;12.45;3.78;;;15.40;99.10;;;;;;5048799;28;20048;-52
2021/08/29 07:30:32;;;;;;;17.50;4.18;;;15.40;99.10;;;;;;5047832;28;20404;-52
2021/08/29 07:33:01;;;;;;;18.25;4.57;;;15.40;99.20;;;;;;5042880;28;20079;-54
2021/08/29 07:35:27;;;;;;;16.92;4.53;;;15.40;99.20;;;;;;5029370;28;20033;-55
2021/08/29 07:37:56;;;;;;;15.10;3.78;;;15.40;99.30;;;;;;5049537;28;20037;-54
2021/08/29 07:40:21;;;;;;;17.67;4.50;;;15.40;99.40;;;;;;5048474;28;20064;-53
2021/08/29 07:42:50;;;;;;;14.35;3.60;;;15.50;99.70;;;;;;5048740;28;20172;-55
2021/08/29 07:45:16;;;;;;;16.20;4.38;;;15.50;99.70;;;;;;5049723;28;20512;-51
2021/08/29 07:47:41;;;;;;;15.63;4.05;;;15.40;99.70;;;;;;5052150;28;20060;-52
2021/08/29 07:50:08;;;;;;;18.15;3.92;;;15.40;99.90;;;;;;5048408;28;20135;-55
2021/08/29 07:52:33;;;;;;;12.07;3.78;;;15.40;99.90;;;;;;5047945;28;20128;-54
2021/08/29 07:54:59;;;;;;;15.43;4.10;;;15.40;99.90;;;;;;5048646;28;20127;-57
2021/08/29 07:57:24;;;;;;;17.25;3.65;;;15.50;99.90;;;;;;5035948;28;20378;-57
2021/08/29 07:59:54;;;;;;;15.05;3.80;;;15.40;99.90;;;;;;5051988;28;20037;-55
2021/08/29 08:02:19;;;;;;;18.77;4.55;;;15.40;99.90;;;;;;5011925;28;20138;-55
2021/08/29 08:04:48;;;;;;;20.10;4.00;;;15.50;99.90;;;;;;5054163;28;20151;-55
2021/08/29 08:07:13;;;;;;;17.75;3.67;;;15.50;99.90;;;;;;5046050;28;20115;-55
2021/08/29 08:09:39;;;;;;;14.70;3.75;;;15.60;99.90;;;;;;5052459;28;20135;-57
2021/08/29 08:12:05;;;;;;;15.18;4.10;;;15.60;99.90;;;;;;5045003;28;20485;-57
2021/08/29 08:14:32;;;;;;;12.40;3.65;;;15.60;99.90;;;;;;5045676;28;20034;-52
2021/08/29 08:16:59;;;;;;;18.90;4.03;;;15.60;99.90;;;;;;5054596;28;20512;-54
2021/08/29 08:19:24;;;;;;;17.10;4.10;;;15.60;99.90;;;;;;5019437;28;20033;-57
2021/08/29 08:21:50;;;;;;;12.32;3.45;;;15.60;99.90;;;;;;5052146;28;20098;-58
2021/08/29 08:24:15;;;;;;;11.65;3.63;;;15.60;99.90;;;;;;5000119;28;20077;-57
2021/08/29 08:26:41;;;;;;;11.98;3.90;;;15.60;99.90;;;;;;5045284;28;20132;-54
2021/08/29 08:29:07;;;;;;;9.82;3.22;;;15.60;99.90;;;;;;5048135;28;20110;-57
2021/08/29 08:31:33;;;;;;;12.68;3.80;;;15.60;99.90;;;;;;5005484;28;20385;-57
2021/08/29 08:33:58;;;;;;;9.95;3.45;;;15.60;99.90;;;;;;5047971;28;20041;-57
2021/08/29 08:36:24;;;;;;;12.35;3.70;;;15.60;99.90;;;;;;5056665;28;20033;-58
2021/08/29 08:38:50;;;;;;;12.18;3.60;;;15.60;99.90;;;;;;5049104;28;20041;-57
2021/08/29 08:41:19;;;;;;;8.77;3.40;;;15.60;99.90;;;;;;5038933;28;20063;-56
2021/08/29 08:43:45;;;;;;;10.75;3.90;;;15.60;99.90;;;;;;5052575;28;20412;-56
2021/08/29 08:46:16;;;;;;;12.73;3.80;;;15.70;99.90;;;;;;5039363;28;20140;-56
2021/08/29 08:48:48;;;;;;;12.60;4.22;;;15.70;99.90;;;;;;5051606;28;20044;-56
2021/08/29 08:51:21;;;;;;;14.75;3.90;;;15.70;99.90;;;;;;5023482;28;20051;-57
2021/08/29 08:53:47;;;;;;;12.75;4.28;;;15.70;99.90;;;;;;5042415;28;20067;-56
2021/08/29 08:56:16;;;;;;;10.07;3.90;;;15.70;99.90;;;;;;5046550;28;20041;-56
2021/08/29 08:58:43;;;;;;;7.72;3.90;;;15.70;99.90;;;;;;5024510;28;20087;-56
2021/08/29 09:01:18;;;;;;;12.55;4.05;;;15.70;99.90;;;;;;5006567;28;20053;-56
2021/08/29 09:03:48;;;;;;;12.10;4.10;;;15.70;99.90;;;;;;5047565;28;20060;-52
2021/08/29 09:06:13;;;;;;;11.90;4.00;;;15.70;99.90;;;;;;5006711;28;20037;-56
2021/08/29 09:08:39;;;;;;;10.57;4.30;;;15.70;99.90;;;;;;5051245;28;20047;-56
2021/08/29 09:11:06;;;;;;;9.02;4.18;;;15.70;99.90;;;;;;5033672;28;20124;-56
2021/08/29 09:13:47;;;;;;;10.38;3.97;;;15.80;99.90;;;;;;5022109;28;20127;-55
2021/08/29 09:16:25;;;;;;;9.48;4.07;;;15.80;99.90;;;;;;5040361;28;20147;-56
2021/08/29 09:19:02;;;;;;;10.07;4.35;;;15.80;99.90;;;;;;5032395;28;20293;-54
2021/08/29 09:21:36;;;;;;;12.38;4.82;;;15.90;99.90;;;;;;5033413;28;20049;-56
2021/08/29 09:24:11;;;;;;;15.13;4.72;;;15.90;99.90;;;;;;5044406;28;20053;-56
2021/08/29 09:26:44;;;;;;;14.02;5.18;;;16.00;99.90;;;;;;5051222;28;20488;-56
2021/08/29 09:29:24;;;;;;;14.05;5.15;;;16.00;99.90;;;;;;5035503;28;20070;-56
2021/08/29 09:31:50;;;;;;;15.27;5.63;;;16.00;99.90;;;;;;5034577;28;20067;-57
2021/08/29 09:34:20;;;;;;;19.27;5.32;;;16.10;99.90;;;;;;5032165;28;20049;-56
2021/08/29 09:36:49;;;;;;;14.07;5.45;;;16.10;99.90;;;;;;5001933;28;20385;-59
2021/08/29 09:39:28;;;;;;;18.48;6.15;;;16.10;99.90;;;;;;5042774;28;20091;-56
2021/08/29 09:42:02;;;;;;;14.32;5.95;;;16.20;99.90;;;;;;5036254;28;20460;-56
2021/08/29 09:44:33;;;;;;;14.43;5.55;;;16.20;99.90;;;;;;5051170;28;20045;-55
2021/08/29 09:47:02;;;;;;;14.43;6.40;;;16.20;99.90;;;;;;5046940;28;20049;-56
2021/08/29 09:49:37;;;;;;;14.18;5.97;;;16.20;99.90;;;;;;5046603;28;20041;-56
2021/08/29 09:52:11;;;;;;;14.57;5.90;;;16.10;99.90;;;;;;5018173;28;20087;-56
2021/08/29 09:54:41;;;;;;;15.35;5.93;;;16.20;99.90;;;;;;5025881;28;20055;-56
2021/08/29 09:57:12;;;;;;;21.13;6.25;;;16.20;99.90;;;;;;5050170;28;20043;-56
2021/08/29 09:59:47;;;;;;;16.77;6.05;;;16.20;99.90;;;;;;5044075;28;20033;-53
2021/08/29 10:02:22;;;;;;;18.98;6.07;;;16.20;99.90;;;;;;4997765;28;20460;-57
2021/08/29 10:05:11;;;;;;;18.52;6.20;;;16.20;99.90;;;;;;5049187;28;20523;-57
2021/08/29 10:08:04;;;;;;;19.83;5.82;;;16.20;99.90;;;;;;5037910;28;20045;-56
2021/08/29 10:10:31;;;;;;;15.00;5.78;;;16.40;99.90;;;;;;5049339;28;20049;-56
2021/08/29 10:12:58;;;;;;;16.65;6.18;;;16.50;99.90;;;;;;5054163;28;20067;-56
2021/08/29 10:15:25;;;;;;;16.50;6.28;;;16.40;99.90;;;;;;5054898;28;20114;-56
2021/08/29 10:17:54;;;;;;;20.13;6.35;;;16.40;99.90;;;;;;5049969;28;20104;-54
2021/08/29 10:20:20;;;;;;;20.58;6.53;;;16.40;99.90;;;;;;5036554;28;20052;-56
2021/08/29 10:22:50;;;;;;;16.55;6.35;;;16.40;99.90;;;;;;5051930;28;20033;-56
2021/08/29 10:25:18;;;;;;;20.70;5.70;;;16.40;99.90;;;;;;5053311;28;20060;-56
2021/08/29 10:28:06;;;;;;;16.17;6.15;;;16.40;99.90;;;;;;5053595;28;20055;-56
2021/08/29 10:30:33;;;;;;;18.13;6.00;;;16.50;99.90;;;;;;5049610;28;20037;-56
2021/08/29 10:33:05;;;;;;;13.30;5.65;;;16.60;99.90;;;;;;5048860;28;20155;-56
2021/08/29 10:35:33;;;;;;;14.77;5.78;;;16.50;99.90;;;;;;5011769;28;20037;-56
2021/08/29 10:37:59;;;;;;;13.10;4.80;;;16.60;99.90;;;;;;5049631;28;20062;-56
2021/08/29 10:40:27;;;;;;;13.45;5.45;;;16.60;99.90;;;;;;5030425;28;20033;-56
2021/08/29 10:42:55;;;;;;;11.48;4.88;;;16.60;99.90;;;;;;5048760;28;20122;-57
2021/08/29 10:45:21;;;;;;;13.40;4.78;;;16.60;99.90;;;;;;5043123;28;20106;-57
2021/08/29 10:47:51;;;;;;;16.17;5.38;;;16.60;99.90;;;;;;5046663;28;20037;-56
2021/08/29 10:50:19;;;;;;;15.80;5.20;;;16.50;99.90;;;;;;5033018;28;20554;-58
2021/08/29 10:52:46;;;;;;;12.20;5.20;;;16.60;99.90;;;;;;5034205;28;20111;-58
2021/08/29 10:55:18;;;;;;;13.65;4.68;;;16.60;99.90;;;;;;5016735;28;20040;-57
2021/08/29 10:57:49;;;;;;;9.98;4.85;;;16.60;99.90;;;;;;5027497;28;20045;-56
2021/08/29 11:00:17;;;;;;;12.80;4.15;;;16.70;99.90;;;;;;5032775;28;20041;-55
2021/08/29 11:02:48;;;;;;;7.53;3.83;;;16.80;99.90;;;;;;5050595;28;20072;-56
2021/08/29 11:05:42;;;;;;;13.27;4.50;;;16.80;99.90;;;;;;5026673;28;20071;-56
2021/08/29 11:08:28;;;;;;;7.57;3.80;;;16.70;99.70;;;;;;5044468;28;20045;-54
2021/08/29 11:10:55;;;;;;;12.98;4.35;;;16.70;99.90;;;;;;5014112;28;20104;-54
2021/08/29 11:13:31;;;;;;;8.60;3.90;;;16.70;99.90;;;;;;5049132;28;20088;-57
2021/08/29 11:16:15;;;;;;;7.00;3.13;;;16.80;99.80;;;;;;5026557;28;20310;-54
2021/08/29 11:18:59;;;;;;;8.43;4.03;;;16.60;99.90;;;;;;5047139;28;20454;-54
2021/08/29 11:21:45;;;;;;;6.07;3.72;;;16.60;99.90;;;;;;5039270;28;20056;-54
2021/08/29 11:24:10;;;;;;;7.95;3.58;;;16.50;99.90;;;;;;5027935;28;20076;-54
2021/08/29 11:26:42;;;;;;;9.25;3.80;;;16.50;99.90;;;;;;5051801;28;20045;-54
2021/08/29 11:29:40;;;;;;;7.20;3.30;;;16.60;99.90;;;;;;5037871;28;20515;-51
2021/08/29 11:32:09;;;;;;;9.63;4.07;;;16.50;99.90;;;;;;5038576;28;20596;-54
2021/08/29 11:34:36;;;;;;;10.20;3.85;;;16.50;99.90;;;;;;5047576;28;20094;-55
2021/08/29 11:37:23;;;;;;;11.98;3.88;;;16.60;99.90;;;;;;5043056;28;20359;-55
2021/08/29 11:39:59;;;;;;;9.35;3.80;;;16.60;99.90;;;;;;5026641;28;20049;-56
2021/08/29 11:42:25;;;;;;;9.15;3.40;;;16.70;99.90;;;;;;5051963;28;20344;-54
2021/08/29 11:44:51;;;;;;;9.68;3.80;;;16.70;99.90;;;;;;5049246;28;20029;-56
2021/08/29 11:47:16;;;;;;;7.03;3.80;;;16.70;99.90;;;;;;5011450;28;20076;-58
2021/08/29 11:49:46;;;;;;;7.72;3.83;;;16.80;99.90;;;;;;5047709;28;20045;-52
2021/08/29 11:52:30;;;;;;;12.43;4.30;;;16.80;99.90;;;;;;5041780;28;20400;-58
2021/08/29 11:55:12;;;;;;;10.32;4.28;;;16.80;99.90;;;;;;5034054;28;20056;-57
2021/08/29 11:57:48;;;;;;;6.40;3.40;;;16.80;99.90;;;;;;5043653;28;20042;-55
2021/08/29 12:00:16;;;;;;;6.70;3.67;;;16.80;99.90;;;;;;5040725;28;20025;-56
2021/08/29 12:02:43;;;;;;;9.63;4.00;;;16.80;99.90;;;;;;5046752;28;20037;-55
2021/08/29 12:05:11;;;;;;;8.35;3.72;;;16.90;99.90;;;;;;5046039;28;20033;-57
2021/08/29 12:08:09;;;;;;;8.63;3.30;;;17.00;99.90;;;;;;5022810;28;20045;-57
2021/08/29 12:10:36;;;;;;;9.98;3.85;;;16.90;99.90;;;;;;5050639;28;20084;-57
2021/08/29 12:13:04;;;;;;;7.15;3.72;;;16.90;99.90;;;;;;5055358;28;20064;-55
2021/08/29 12:15:30;;;;;;;9.43;4.18;;;16.90;99.90;;;;;;5032779;28;20045;-57
2021/08/29 12:18:01;;;;;;;8.85;3.72;;;16.90;99.90;;;;;;5054391;28;20033;-57
2021/08/29 12:20:28;;;;;;;9.27;3.70;;;16.90;99.90;;;;;;5020826;28;20036;-57
2021/08/29 12:23:04;;;;;;;9.73;3.92;;;16.80;99.90;;;;;;5054505;28;20094;-53
2021/08/29 12:25:30;;;;;;;9.65;3.75;;;16.80;99.90;;;;;;5054037;28;20044;-52
2021/08/29 12:28:10;;;;;;;6.80;4.00;;;16.70;99.90;;;;;;5019138;28;20037;-53
2021/08/29 12:30:36;;;;;;;7.95;3.88;;;16.70;99.90;;;;;;5053292;28;20029;-53
2021/08/29 12:33:20;;;;;;;8.60;4.00;;;16.60;99.90;;;;;;5046076;28;20037;-54
2021/08/29 12:35:46;;;;;;;9.00;3.90;;;16.60;99.90;;;;;;5054096;28;20028;-56
2021/08/29 12:38:29;;;;;;;6.85;4.32;;;16.60;99.90;;;;;;5042578;28;20090;-54
2021/08/29 12:40:59;;;;;;;7.28;3.88;;;16.70;99.90;;;;;;5036130;28;20037;-55
2021/08/29 12:43:28;;;;;;;8.43;4.15;;;16.70;99.90;;;;;;5030146;28;20401;-54